Terminal Aerodrome Forecast
Issued by NWS Raleigh/Durham, NC

Home | Current Version | Previous Version | Text Only | Print | Product List | Glossary On
Versions: 1 2 3 4 5 6 7 8 9 10 11 12 13 14 15 16 17 18 19 20 21 22 23 24 25 26
000
FTUS42 KRAH 070852 AAB
TAFGSO
TAF AMD
KGSO 070852Z 0709/0806 VRB03KT 3SM BR SCT005
      TEMPO 0709/0712 00000KT 1/2SM FG VV002
     FM071300 34006KT P6SM SCT250
     FM080400 00000KT 6SM BR OVC050=

USA.gov is the U.S. government's official web portal to all federal, state and local government web resources and services.